Flight Track Log - Related Links

Times and Time Zones

All times are in EDT time to prevent confusion due to time zone crossing. See the SWA3685 flight status page for this flight to view local times or setup timezone preferences in your user account.

Time Position Orientation Groundspeed Altitude Reporting Facility
EDT Latitude Longitude Course Direction KTS MPH feet Rate Location/Type
Mon 02:35:36 PM 41.8281 -87.7444 86° East 222 255 3,400  Level Chicago Center
Mon 02:37:00 PM 41.7667 -87.5179 90° East  Level FlightAware Approximate
Mon 02:37:41 PM 41.8297 -87.5567 90° East 255 293 5,900  Level Chicago Center
Mon 02:38:43 PM 41.8117 -87.4381 102° East 269 310 7,500 2,565 Climbing Chicago Center
Mon 02:39:45 PM 41.7994 -87.3392 99° East 270 311 11,200 3,339 Climbing Chicago Center
Mon 02:40:47 PM 41.7853 -87.2339 100° East 280 322 14,400 2,952 Climbing Chicago Center
Mon 02:41:00 PM 41.7538 -86.7490 86° East  Level FlightAware Approximate
Mon 02:41:49 PM 41.7697 -87.1194 100° East 302 348 17,300  Level Chicago Center
Mon 02:42:51 PM 41.7633 -86.9875 94° East 354 407 18,400 1,968 Climbing Chicago Center
Mon 02:43:54 PM 41.7653 -86.8106 89° East 394 453 21,400 2,661 Climbing Chicago Center
Mon 02:44:55 PM 41.7656 -86.6569 90° East 408 470 23,900 2,293 Climbing Chicago Center
Mon 02:45:57 PM 41.7675 -86.4989 89° East 421 484 26,100 1,807 Climbing Chicago Center
Mon 02:48:00 PM 41.7854 -86.1950 78° East  Level FlightAware Approximate
Mon 02:52:10 PM 41.9014 -85.5369 90° East 420 483 37,000  Level Chicago Center
Mon 02:53:36 PM 41.9417 -85.3128 76° East 426 490 38,500 822 Climbing Cleveland Center
Mon 02:54:36 PM 41.9542 -85.1600 84° East 426 490 39,000 185 Climbing Cleveland Center
Mon 02:55:00 PM 41.9500 -85.1748 90° East  Level FlightAware Approximate
Mon 02:56:00 PM 41.9501 -85.0248 90° East  Level FlightAware Approximate
Mon 02:56:18 PM 41.9503 -84.9178 91° East 414 476 39,000  Level Chicago Center
Mon 02:56:37 PM 41.9514 -84.8525 89° East 414 476 39,000  Level Cleveland Center
Mon 02:57:00 PM 41.9334 -84.8862 90° East  Level FlightAware Approximate
Mon 02:58:22 PM 41.9478 -84.5775 91° East 412 474 39,000  Level Chicago Center
Mon 02:58:39 PM 41.9497 -84.5481 85° East 409 471 39,000  Level Cleveland Center
Mon 02:59:36 PM 41.9467 -84.3914 91° East 409 471 39,000  Level Cleveland Center
Mon 03:01:29 PM 41.9439 -84.1161 91° East 413 475 39,000  Level Chicago Center
Mon 03:03:00 PM 41.9405 -83.8888 91° East  Level FlightAware Approximate
Mon 03:04:39 PM 41.9567 -83.6408 91° East 405 466 39,000  Level Cleveland Center
Mon 03:05:36 PM 41.9753 -83.4853 81° East 405 466 39,000  Level Cleveland Center
Mon 03:07:00 PM 41.9932 -83.2803 80° East  Level FlightAware Approximate
Mon 03:08:38 PM 42.0342 -83.0125 81° East 410 472 39,000  Level Cleveland Center
Mon 03:09:38 PM 42.0519 -82.8594 81° East 410 472 39,000  Level Cleveland Center
Mon 03:11:00 PM 42.0747 -82.6602 81° East  Level FlightAware Approximate
Mon 03:11:39 PM 42.0892 -82.5444 81° East 410 472 39,000  Level Cleveland Center
Mon 03:13:00 PM 42.1105 -82.3473 82° East  Level FlightAware Approximate
Mon 03:14:00 PM 42.1183 -82.2619 81° East  Level FlightAware Approximate
Mon 03:14:38 PM 42.1419 -82.0758 82° East 420 483 39,000  Level Cleveland Center
Mon 03:15:36 PM 42.1606 -81.9222 81° East 421 484 39,000  Level Cleveland Center
Mon 03:16:38 PM 42.1769 -81.7656 82° East 422 486 39,000  Level Cleveland Center
Mon 03:18:00 PM 42.1970 -81.5654 82° East  Level FlightAware Approximate
Mon 03:18:39 PM 42.2111 -81.4467 82° East 426 490 39,000  Level Cleveland Center
Mon 03:19:36 PM 42.2267 -81.3039 82° East 426 490 39,000  Level Cleveland Center
Mon 03:20:00 PM 42.2190 -81.3238 82° East  Level FlightAware Approximate
Mon 03:20:37 PM 42.2419 -81.1442 83° East 426 490 39,000  Level Cleveland Center
Mon 03:22:00 PM 42.2586 -80.9398 81° East  Level FlightAware Approximate
Mon 03:24:36 PM 42.3058 -80.4878 83° East 426 490 39,000  Level Cleveland Center
Mon 03:26:38 PM 42.3364 -80.1647 83° East 426 490 39,000  Level Cleveland Center
Mon 03:28:38 PM 42.3683 -79.8442 82° East 426 490 39,000  Level Cleveland Center
Mon 03:29:00 PM 42.3548 -79.9078 83° East  Level FlightAware Approximate
Mon 03:30:00 PM 42.3673 -79.7600 83° East  Level FlightAware Approximate
Mon 03:30:00 PM 42.3781 -79.6411 83° East  Level FlightAware Approximate
Mon 03:30:37 PM 42.3928 -79.5233 83° East 426 490 39,000  Level Cleveland Center
Mon 03:31:00 PM 42.3807 -79.6123 83° East  Level FlightAware Approximate
Mon 03:32:00 PM 42.4104 -79.3188 83° East  Level FlightAware Approximate
Mon 03:34:37 PM 42.6647 -79.0500 84° East 415 478 39,000  Level Cleveland Center
Mon 03:36:00 PM 42.6640 -78.8432 90° East  Level Estimated
Mon 03:36:36 PM 42.6808 -78.7219 90° East 411 473 39,000  Level Cleveland Center
Mon 03:38:37 PM 42.6917 -78.3911 87° East 433 498 39,000  Level Cleveland Center
Mon 03:39:00 PM 42.4941 -78.2823 83° East  Level FlightAware Approximate
Mon 03:40:00 PM 42.5053 -78.1341 84° East  Level FlightAware Approximate
Mon 03:40:00 PM 42.6834 -78.1849 93° East  Level FlightAware Approximate
Mon 03:40:38 PM 42.7036 -78.0544 93° East 439 505 39,000  Level Cleveland Center
Mon 03:41:36 PM 42.7083 -77.8933 88° East 439 505 39,000  Level Cleveland Center
Mon 03:42:36 PM 42.7103 -77.7208 89° East 439 505 39,000  Level Cleveland Center
Mon 03:43:37 PM 42.7144 -77.5539 88° East 439 505 39,000  Level Cleveland Center
Mon 03:44:37 PM 42.7197 -77.3669 88° East 445 512 39,000  Level Cleveland Center
Mon 03:46:00 PM 42.7193 -77.1925 90° East  Level FlightAware Approximate
Mon 03:46:50 PM 42.7281 -76.9944 90° East 449 517 39,000  Level Boston Center
Mon 03:48:00 PM 42.7210 -76.8203 93° East  Level FlightAware Approximate
Mon 03:48:50 PM 42.7350 -76.6553 93° East 444 511 39,000  Level Boston Center
Mon 03:50:00 PM 42.7359 -76.4808 90° East  Level FlightAware Approximate
Mon 03:50:50 PM 42.7406 -76.3192 90° East 439 505 39,000  Level Boston Center
Mon 03:51:50 PM 42.7417 -76.1667 89° East 439 505 39,000  Level Boston Center
Mon 03:52:50 PM 42.7450 -75.9969 88° East 439 505 39,000 -433 Level Boston Center
Mon 03:54:00 PM 42.7446 -75.8221 90° East  Level FlightAware Approximate
Mon 03:54:50 PM 42.7467 -75.6606 90° East 439 505 37,700  Level Boston Center
Mon 03:56:00 PM 42.7453 -75.4857 91° East  Level FlightAware Approximate
Mon 03:56:50 PM 42.7475 -75.3183 91° East 439 505 37,000  Level Boston Center
Mon 03:57:50 PM 42.7494 -75.1517 89° East 439 505 37,000  Level Boston Center
Mon 03:59:02 PM 42.7497 -74.9622 90° East 446 513 37,000  Level Boston Center
Mon 04:00:02 PM 42.7497 -74.7614 90° East 446 513 37,000  Level Boston Center
Mon 04:02:02 PM 42.7500 -74.4222 90° East 440 506 37,000  Level Boston Center
Mon 04:04:00 PM 42.7426 -74.1287 92° East  Level FlightAware Approximate
Mon 04:05:02 PM 42.7453 -73.9131 92° East 440 506 37,000  Level Boston Center
Mon 04:06:02 PM 42.7369 -73.7406 94° East 440 506 36,200 -800 Descending Boston Center
Mon 04:07:02 PM 42.7258 -73.5933 96° East 440 506 35,400 -900 Descending Boston Center
Mon 04:08:02 PM 42.7067 -73.4178 98° East 452 520 34,400 -1,067 Descending Boston Center
Mon 04:10:02 PM 42.6717 -73.0783 98° East 452 520 32,200 -1,067 Descending Boston Center
Mon 04:11:02 PM 42.6517 -72.8975 98° East 463 533 31,200 -1,700 Descending Boston Center
Mon 04:12:02 PM 42.6333 -72.7278 98° East 463 533 28,800 -2,750 Descending Boston Center
Mon 04:13:02 PM 42.6150 -72.5558 98° East 455 524 25,700 -2,650 Descending Boston Center
Mon 04:14:02 PM 42.5900 -72.4061 103° East 434 499 23,500 -2,125 Descending Boston Center
Mon 04:16:00 PM 42.5393 -72.1188 103° East  Level FlightAware Approximate
Mon 04:17:02 PM 42.5369 -71.9694 103° East 382 440 17,200  Level Boston Center
Mon 04:19:02 PM 42.5106 -71.6936 97° East 368 423 12,200 -2,138 Descending Boston Center
Mon 04:19:56 PM 42.5000 -71.5500 96° East 361 415 11,000 -781 Descending KA90
Mon 04:21:51 PM 42.4833 -71.3167 95° East 309 356 10,000 -796 Descending KA90
Mon 04:22:57 PM 42.4667 -71.2000 101° East 291 335 8,600 -1,000 Descending KA90
Mon 04:24:51 PM 42.4333 -71.0167 104° East 242 278 7,000 -586 Descending KA90
Mon 04:25:51 PM 42.3833 -70.9833 154° Southeast 224 258 6,900 -597 Descending KA90
Mon 04:27:52 PM 42.2667 -70.9500 168° South 207 238 5,200 -630 Descending KA90
Mon 04:28:52 PM 42.2167 -70.9667 194° South 206 237 5,000 -101 Descending KA90
Mon 04:29:51 PM 42.1667 -71.0000 206° Southwest 208 239 5,000 -316 Level KA90
Mon 04:31:00 PM 42.2922 -71.0000 North  Level FlightAware Approximate
Mon 04:32:02 PM 42.0964 -71.0886 North 145 167 4,000  Level Boston Center
Mon 04:33:02 PM 42.1319 -71.1103 336° Northwest 154 177 3,400 -455 Descending Boston Center
Mon 04:34:14 PM 42.1861 -71.0897 16° North 159 183 3,000 -600 Descending Boston Center
Mon 04:34:52 PM 42.2333 -71.0667 20° North 191 220 2,300 -830 Descending KA90
Mon 04:36:53 PM 42.3167 -71.0333 16° North 142 163 800 -744 Descending KA90

Login

Don't have an account? Register now (free) for customized features, flight alerts, and more!